Time;durP1;ratioP1;P1;durP2;ratioP2;P2;SDS_P1;SDS_P2;PMS_P1;PMS_P2;Temp;Humidity;BMP_temperature;BMP_pressure;BME280_temperature;BME280_humidity;BME280_pressure;Samples;Min_cycle;Max_cycle;Signal;HPM_P1;HPM_P2
2022/09/28 00:01:06;;;;;;;;;;;8.40;99.90;;;;;;5047000;28;19920;-71
2022/09/28 00:03:31;;;;;;;;;;;8.00;99.90;;;;;;5045575;28;19921;-71
2022/09/28 00:06:01;;;;;;;;;;;8.00;99.90;;;;;;5043859;28;19927;-71
2022/09/28 00:08:27;;;;;;;;;;;8.00;99.90;;;;;;5043615;28;20288;-71
2022/09/28 00:10:55;;;;;;;;;;;8.00;99.90;;;;;;5047478;28;19931;-72
2022/09/28 00:13:21;;;;;;;;;;;8.00;99.90;;;;;;5044005;28;20352;-71
2022/09/28 00:15:57;;;;;;;;;;;8.00;99.90;;;;;;5047762;28;19928;-71
2022/09/28 00:18:23;;;;;;;;;;;8.00;99.90;;;;;;5007227;28;19921;-71
2022/09/28 00:20:58;;;;;;;;;;;8.00;99.90;;;;;;5007622;28;20335;-71
2022/09/28 00:23:23;;;;;;;;;;;8.00;99.90;;;;;;5029687;28;20369;-72
2022/09/28 00:25:49;;;;;;;;;;;8.00;99.90;;;;;;5007140;28;19968;-72
2022/09/28 00:28:15;;;;;;;;;;;8.00;99.90;;;;;;5005091;28;20361;-71
2022/09/28 00:30:40;;;;;;;;;;;8.00;99.90;;;;;;5007856;28;19931;-71
2022/09/28 00:33:06;;;;;;;;;;;8.00;99.90;;;;;;5021838;28;19925;-71
2022/09/28 00:35:31;;;;;;;;;;;8.00;99.90;;;;;;5006520;28;19975;-71
2022/09/28 00:37:57;;;;;;;;;;;8.00;99.90;;;;;;5003972;28;20025;-71
2022/09/28 00:40:22;;;;;;;;;;;8.00;99.90;;;;;;5004812;28;19921;-71
2022/09/28 00:42:48;;;;;;;;;;;8.00;99.90;;;;;;5024344;28;19921;-71
2022/09/28 00:45:13;;;;;;;;;;;8.10;99.90;;;;;;5004272;28;19921;-71
2022/09/28 00:47:39;;;;;;;;;;;8.00;99.90;;;;;;5022662;28;19921;-71
2022/09/28 00:50:11;;;;;;;;;;;8.00;99.90;;;;;;5010346;28;19921;-71
2022/09/28 00:52:41;;;;;;;;;;;8.00;99.90;;;;;;5023822;28;20495;-71
2022/09/28 00:55:08;;;;;;;;;;;8.00;99.90;;;;;;5021137;28;19984;-71
2022/09/28 00:57:35;;;;;;;;;;;8.00;99.90;;;;;;5006525;28;19921;-72
2022/09/28 01:00:05;;;;;;;;;;;8.00;99.90;;;;;;5007242;28;19920;-71
2022/09/28 01:02:33;;;;;;;;;;;8.00;99.90;;;;;;5020854;28;20020;-72
2022/09/28 01:05:02;;;;;;;;;;;8.00;99.90;;;;;;5006286;28;19921;-71
2022/09/28 01:07:27;;;;;;;;;;;8.00;99.90;;;;;;5009611;28;19925;-71
2022/09/28 01:09:53;;;;;;;;;;;8.00;99.90;;;;;;5004406;28;19924;-71
2022/09/28 01:12:19;;;;;;;;;;;7.90;99.90;;;;;;5007380;28;19921;-71
2022/09/28 01:14:45;;;;;;;;;;;7.90;99.90;;;;;;5004705;28;20336;-71
2022/09/28 01:17:15;;;;;;;;;;;7.90;99.90;;;;;;5041986;28;20015;-71
2022/09/28 01:19:59;;;;;;;;;;;7.80;99.90;;;;;;5045566;28;20411;-72
2022/09/28 01:22:27;;;;;;;;;;;7.80;99.90;;;;;;5040233;28;20015;-72
2022/09/28 01:25:19;;;;;;;;;;;7.80;99.90;;;;;;5044291;28;20454;-71
2022/09/28 01:28:01;;;;;;;;;;;7.80;99.90;;;;;;5057447;28;20015;-71
2022/09/28 01:30:27;;;;;;;;;;;7.80;99.90;;;;;;5042332;28;19930;-71
2022/09/28 01:32:57;;;;;;;;;;;7.80;99.90;;;;;;5062999;28;19993;-72
2022/09/28 01:35:26;;;;;;;;;;;7.80;99.90;;;;;;5061014;28;19975;-71
2022/09/28 01:37:54;;;;;;;;;;;7.80;99.90;;;;;;5040091;28;19966;-71
2022/09/28 01:40:21;;;;;;;;;;;7.70;99.90;;;;;;5061525;28;19921;-71
2022/09/28 01:42:49;;;;;;;;;;;7.70;99.90;;;;;;5062228;28;20261;-70
2022/09/28 01:45:20;;;;;;;;;;;7.70;99.90;;;;;;5061197;28;19921;-70
2022/09/28 01:47:46;;;;;;;;;;;7.70;99.90;;;;;;5058353;28;20006;-71
2022/09/28 01:50:13;;;;;;;;;;;7.70;99.90;;;;;;5055266;28;20341;-70
2022/09/28 01:52:43;;;;;;;;;;;7.60;99.90;;;;;;5043113;28;19989;-70
2022/09/28 01:55:11;;;;;;;;;;;7.70;99.90;;;;;;5043627;28;20357;-70
2022/09/28 01:57:40;;;;;;;;;;;7.60;99.90;;;;;;5043749;28;20019;-70
2022/09/28 02:00:07;;;;;;;;;;;7.60;99.90;;;;;;5040479;28;20364;-70
2022/09/28 02:02:37;;;;;;;;;;;7.60;99.90;;;;;;5042619;28;20288;-70
2022/09/28 02:05:20;;;;;;;;;;;7.60;99.90;;;;;;5062801;28;19921;-70
2022/09/28 02:07:58;;;;;;;;;;;7.60;99.90;;;;;;5041109;28;19943;-70
2022/09/28 02:10:28;;;;;;;;;;;7.60;99.90;;;;;;5055483;28;19978;-70
2022/09/28 02:12:57;;;;;;;;;;;7.60;99.90;;;;;;5037610;28;19921;-70
2022/09/28 02:15:26;;;;;;;;;;;7.60;99.90;;;;;;5063418;28;19927;-70
2022/09/28 02:17:52;;;;;;;;;;;7.60;99.90;;;;;;5060028;28;19924;-70
2022/09/28 02:20:19;;;;;;;;;;;7.60;99.90;;;;;;5043779;28;19973;-71
2022/09/28 02:22:49;;;;;;;;;;;7.60;99.90;;;;;;5056249;28;19921;-70
2022/09/28 02:25:23;;;;;;;;;;;7.60;99.90;;;;;;5061165;28;19920;-71
2022/09/28 02:27:55;;;;;;;;;;;7.60;99.90;;;;;;5042110;28;20004;-70
2022/09/28 02:30:21;;;;;;;;;;;7.50;99.90;;;;;;5056012;28;19925;-70
2022/09/28 02:32:52;;;;;;;;;;;7.50;99.90;;;;;;5062395;28;19931;-70
2022/09/28 02:35:21;;;;;;;;;;;7.50;99.90;;;;;;5042388;28;19928;-71
2022/09/28 02:37:47;;;;;;;;;;;7.50;99.90;;;;;;5062156;28;19927;-70
2022/09/28 02:40:16;;;;;;;;;;;7.50;99.90;;;;;;5042279;28;20049;-70
2022/09/28 02:42:53;;;;;;;;;;;7.50;99.90;;;;;;5044694;28;20295;-70
2022/09/28 02:45:36;;;;;;;;;;;7.50;99.90;;;;;;5038098;28;20293;-71
2022/09/28 02:48:11;;;;;;;;;;;7.50;99.90;;;;;;5035523;28;21559;-70
2022/09/28 02:50:40;;;;;;;;;;;7.50;99.90;;;;;;5043932;28;19925;-70
2022/09/28 02:53:11;;;;;;;;;;;7.50;99.90;;;;;;5043939;28;19920;-70
2022/09/28 02:55:53;;;;;;;;;;;8.20;99.90;;;;;;5036022;28;19974;-70
2022/09/28 02:58:27;;;;;;;;;;;7.50;99.90;;;;;;5062176;28;19921;-69
2022/09/28 03:00:53;;;;;;;;;;;7.50;99.90;;;;;;5041577;28;19925;-70
2022/09/28 03:03:31;;;;;;;;;;;7.60;99.90;;;;;;5063405;28;19920;-71
2022/09/28 03:06:05;;;;;;;;;;;7.50;99.90;;;;;;5063547;28;19920;-70
2022/09/28 03:08:37;;;;;;;;;;;7.50;99.90;;;;;;5064115;28;19921;-70
2022/09/28 03:11:12;;;;;;;;;;;7.50;99.90;;;;;;5047130;28;20406;-70
2022/09/28 03:13:38;;;;;;;;;;;7.60;99.90;;;;;;5045576;28;19928;-70
2022/09/28 03:16:08;;;;;;;;;;;7.60;99.90;;;;;;5042993;28;19927;-70
2022/09/28 03:18:33;;;;;;;;;;;7.60;99.90;;;;;;5043905;28;19964;-70
2022/09/28 03:21:00;;;;;;;;;;;7.60;99.90;;;;;;5043481;28;20333;-69
2022/09/28 03:23:28;;;;;;;;;;;7.70;99.90;;;;;;5042193;28;19928;-70
2022/09/28 03:25:56;;;;;;;;;;;7.70;99.90;;;;;;5054938;28;19928;-71
2022/09/28 03:28:22;;;;;;;;;;;7.70;99.90;;;;;;5043370;28;19982;-69
2022/09/28 03:30:48;;;;;;;;;;;7.80;99.90;;;;;;5053240;28;20033;-70
2022/09/28 03:33:20;;;;;;;;;;;7.80;99.90;;;;;;5046951;28;19921;-68
2022/09/28 03:35:47;;;;;;;;;;;8.50;99.90;;;;;;5041141;28;20375;-68
2022/09/28 03:38:12;;;;;;;;;;;7.80;99.90;;;;;;5045194;28;20409;-69
2022/09/28 03:40:38;;;;;;;;;;;7.80;99.90;;;;;;5043542;28;20054;-68
2022/09/28 03:43:03;;;;;;;;;;;7.80;99.90;;;;;;5041486;28;19921;-67
2022/09/28 03:45:29;;;;;;;;;;;7.90;99.90;;;;;;5054003;28;19921;-67
2022/09/28 03:47:54;;;;;;;;;;;7.80;99.90;;;;;;5054312;28;20357;-68
2022/09/28 03:50:20;;;;;;;;;;;7.80;99.90;;;;;;5053015;28;19928;-68
2022/09/28 03:52:45;;;;;;;;;;;7.80;99.90;;;;;;5051184;28;19920;-69
2022/09/28 03:55:11;;;;;;;;;;;7.80;99.90;;;;;;5044013;28;20354;-68
2022/09/28 03:57:37;;;;;;;;;;;7.80;99.90;;;;;;5050161;28;20430;-68
2022/09/28 04:00:03;;;;;;;;;;;7.80;99.90;;;;;;5053556;28;19982;-69
2022/09/28 04:02:29;;;;;;;;;;;7.90;99.90;;;;;;5044356;28;19920;-72
2022/09/28 04:04:55;;;;;;;;;;;7.90;99.90;;;;;;5043437;28;19974;-70
2022/09/28 04:07:21;;;;;;;;;;;7.90;99.90;;;;;;5043243;28;19974;-67
2022/09/28 04:09:46;;;;;;;;;;;8.20;99.90;;;;;;5043122;28;20368;-69
2022/09/28 04:12:12;;;;;;;;;;;7.90;99.90;;;;;;5052970;28;19921;-68
2022/09/28 04:14:37;;;;;;;;;;;7.90;99.90;;;;;;5044116;28;19917;-70
2022/09/28 04:17:04;;;;;;;;;;;8.00;99.90;;;;;;5039982;28;19928;-69
2022/09/28 04:19:29;;;;;;;;;;;8.00;99.90;;;;;;5051815;28;20007;-70
2022/09/28 04:21:58;;;;;;;;;;;8.00;99.90;;;;;;5044635;28;19921;-69
2022/09/28 04:24:23;;;;;;;;;;;8.00;99.90;;;;;;5053159;28;20265;-69
2022/09/28 04:26:49;;;;;;;;;;;8.00;99.90;;;;;;5043644;28;20284;-70
2022/09/28 04:29:14;;;;;;;;;;;8.00;99.90;;;;;;5044660;28;19921;-70
2022/09/28 04:31:40;;;;;;;;;;;8.00;99.90;;;;;;5040426;28;21641;-70
2022/09/28 04:34:06;;;;;;;;;;;8.10;99.90;;;;;;5053281;28;19921;-70
2022/09/28 04:36:31;;;;;;;;;;;8.10;99.90;;;;;;5052632;28;19927;-70
2022/09/28 04:38:57;;;;;;;;;;;8.10;99.90;;;;;;5042893;28;19970;-70
2022/09/28 04:41:22;;;;;;;;;;;8.10;99.90;;;;;;5053729;28;19967;-72
2022/09/28 04:43:51;;;;;;;;;;;8.10;99.90;;;;;;5043725;28;19924;-72
2022/09/28 04:46:17;;;;;;;;;;;8.00;99.90;;;;;;5051473;28;19934;-70
2022/09/28 04:48:43;;;;;;;;;;;7.90;99.90;;;;;;5052569;28;19916;-70
2022/09/28 04:51:08;;;;;;;;;;;7.90;99.90;;;;;;5052625;28;19921;-70
2022/09/28 04:53:34;;;;;;;;;;;7.90;99.90;;;;;;5042695;28;19951;-69
2022/09/28 04:56:04;;;;;;;;;;;7.80;99.90;;;;;;5039567;28;19928;-68
2022/09/28 04:58:29;;;;;;;;;;;7.80;99.90;;;;;;5040419;28;20388;-69
2022/09/28 05:00:59;;;;;;;;;;;7.80;99.90;;;;;;5039002;28;19917;-70
2022/09/28 05:03:25;;;;;;;;;;;7.80;99.90;;;;;;5050396;28;19928;-70
2022/09/28 05:05:50;;;;;;;;;;;7.70;99.90;;;;;;5052085;28;19924;-70
2022/09/28 05:08:17;;;;;;;;;;;7.70;99.90;;;;;;5041381;28;19921;-71
2022/09/28 05:10:42;;;;;;;;;;;8.00;99.90;;;;;;5052278;28;20288;-72
2022/09/28 05:13:09;;;;;;;;;;;7.80;99.90;;;;;;5043218;28;19928;-72
2022/09/28 05:15:35;;;;;;;;;;;7.80;99.90;;;;;;5039634;28;20379;-74
2022/09/28 05:18:01;;;;;;;;;;;7.70;99.90;;;;;;5037312;28;19938;-72
2022/09/28 05:20:29;;;;;;;;;;;7.80;99.90;;;;;;5050763;28;19920;-71
2022/09/28 05:22:55;;;;;;;;;;;7.80;99.90;;;;;;5038493;28;20365;-76
2022/09/28 05:25:20;;;;;;;;;;;8.10;99.90;;;;;;5052082;28;19932;-72
2022/09/28 05:27:46;;;;;;;;;;;7.80;99.90;;;;;;5052558;28;20376;-72
2022/09/28 05:30:12;;;;;;;;;;;7.80;99.90;;;;;;5051360;28;19931;-73
2022/09/28 05:32:41;;;;;;;;;;;7.80;99.90;;;;;;5036837;28;19928;-73
2022/09/28 05:35:07;;;;;;;;;;;7.70;99.90;;;;;;5036955;28;20395;-74
2022/09/28 05:37:32;;;;;;;;;;;7.70;99.90;;;;;;5041879;28;19920;-74
2022/09/28 05:39:58;;;;;;;;;;;7.70;99.90;;;;;;5042938;28;20411;-75
2022/09/28 05:42:23;;;;;;;;;;;7.60;99.90;;;;;;5038468;28;20376;-73
2022/09/28 05:44:49;;;;;;;;;;;7.80;99.90;;;;;;5042607;28;19971;-72
2022/09/28 05:47:14;;;;;;;;;;;7.80;99.90;;;;;;5043119;28;19928;-72
2022/09/28 05:49:41;;;;;;;;;;;7.60;99.90;;;;;;5040947;28;19984;-75
2022/09/28 05:52:06;;;;;;;;;;;7.60;99.90;;;;;;5038013;28;19920;-72
2022/09/28 05:54:32;;;;;;;;;;;7.70;99.90;;;;;;5040190;28;19928;-73
2022/09/28 05:56:57;;;;;;;;;;;7.80;99.90;;;;;;5040109;28;20365;-73
2022/09/28 05:59:23;;;;;;;;;;;7.70;99.90;;;;;;5041822;28;19921;-73
2022/09/28 06:01:51;;;;;;;;;;;7.70;99.90;;;;;;5049361;28;19928;-73
2022/09/28 06:04:17;;;;;;;;;;;7.70;99.90;;;;;;5051520;28;19921;-77
2022/09/28 06:06:42;;;;;;;;;;;7.70;99.90;;;;;;5051080;28;19939;-73
2022/09/28 06:09:08;;;;;;;;;;;7.70;99.90;;;;;;5042375;28;19925;-74
2022/09/28 06:11:33;;;;;;;;;;;7.60;99.90;;;;;;5041346;28;19928;-74
2022/09/28 06:13:59;;;;;;;;;;;7.70;99.90;;;;;;5021458;28;19983;-73
2022/09/28 06:16:24;;;;;;;;;;;7.60;99.90;;;;;;5052023;28;20015;-72
2022/09/28 06:18:50;;;;;;;;;;;7.60;99.90;;;;;;5041271;28;20043;-72
2022/09/28 06:21:15;;;;;;;;;;;7.60;99.90;;;;;;5043932;28;20007;-72
2022/09/28 06:23:41;;;;;;;;;;;7.60;99.90;;;;;;5058833;28;19928;-72
2022/09/28 06:26:07;;;;;;;;;;;7.70;99.90;;;;;;5060839;28;20087;-72
2022/09/28 06:28:32;;;;;;;;;;;7.70;99.90;;;;;;5034272;28;19920;-72
2022/09/28 06:30:58;;;;;;;;;;;7.70;99.90;;;;;;5043892;28;19943;-72
2022/09/28 06:33:25;;;;;;;;;;;7.80;99.90;;;;;;5046559;28;20348;-72
2022/09/28 06:35:51;;;;;;;;;;;7.80;99.90;;;;;;5046484;28;19929;-72
2022/09/28 06:38:17;;;;;;;;;;;7.80;99.90;;;;;;5042695;28;19927;-72
2022/09/28 06:40:42;;;;;;;;;;;7.80;99.90;;;;;;5066719;28;20296;-72
2022/09/28 06:43:13;;;;;;;;;;;7.90;99.90;;;;;;5045734;28;19924;-72
2022/09/28 06:45:39;;;;;;;;;;;7.90;99.90;;;;;;5058382;28;20342;-72
2022/09/28 06:48:05;;;;;;;;;;;7.90;99.90;;;;;;5066930;28;20376;-72
2022/09/28 06:50:36;;;;;;;;;;;8.20;99.90;;;;;;5046747;28;19928;-72
2022/09/28 06:53:02;;;;;;;;;;;8.10;99.90;;;;;;5043305;28;20427;-72
2022/09/28 06:55:28;;;;;;;;;;;8.10;99.90;;;;;;5048163;28;20391;-72
2022/09/28 06:58:02;;;;;;;;;;;8.10;99.90;;;;;;5047497;28;19959;-72
2022/09/28 07:00:28;;;;;;;;;;;8.20;99.90;;;;;;5046015;28;20291;-72
2022/09/28 07:02:53;;;;;;;;;;;8.20;99.90;;;;;;5041150;28;19924;-72
2022/09/28 07:05:23;;;;;;;;;;;8.30;99.90;;;;;;5065391;28;20329;-72
2022/09/28 07:07:48;;;;;;;;;;;8.30;99.90;;;;;;5046307;28;19928;-72
2022/09/28 07:10:14;;;;;;;;;;;8.40;99.90;;;;;;5048718;28;19921;-72
2022/09/28 07:12:39;;;;;;;;;;;8.50;99.90;;;;;;5053047;28;19921;-72
2022/09/28 07:15:06;;;;;;;;;;;8.50;99.90;;;;;;5065532;28;19969;-72
2022/09/28 07:17:33;;;;;;;;;;;8.60;99.90;;;;;;5055112;28;19970;-72
2022/09/28 07:19:59;;;;;;;;;;;8.60;99.90;;;;;;5035446;28;19932;-72
2022/09/28 07:22:24;;;;;;;;;;;8.70;99.90;;;;;;5044941;28;19920;-72
2022/09/28 07:24:50;;;;;;;;;;;8.80;99.90;;;;;;5045398;28;19921;-72
2022/09/28 07:27:15;;;;;;;;;;;9.00;99.90;;;;;;5052417;28;19921;-72
2022/09/28 07:29:41;;;;;;;;;;;9.00;99.90;;;;;;5054160;28;20260;-72
2022/09/28 07:32:07;;;;;;;;;;;9.10;99.90;;;;;;5046667;28;19967;-72
2022/09/28 07:34:40;;;;;;;;;;;9.40;99.90;;;;;;5046213;28;19927;-72
2022/09/28 07:37:09;;;;;;;;;;;10.90;99.90;;;;;;5041333;28;19917;-72
2022/09/28 07:41:10;;;;;;;;;;;12.90;99.90;;;;;;5045885;28;19927;-71
2022/09/28 07:42:20;;;;;;;;;;;14.50;99.90;;;;;;5049774;28;19920;-71
2022/09/28 07:44:46;;;;;;;;;;;16.30;99.90;;;;;;5044534;28;19927;-71
2022/09/28 07:47:12;;;;;;;;;;;17.60;99.90;;;;;;5044652;28;19920;-71
2022/09/28 07:49:38;;;;;;;;;;;19.00;99.90;;;;;;5043838;28;19927;-72
2022/09/28 07:52:03;;;;;;;;;;;19.80;99.90;;;;;;5045420;28;20007;-72
2022/09/28 07:54:30;;;;;;;;;;;20.70;99.50;;;;;;5054668;28;19924;-72
2022/09/28 07:56:55;;;;;;;;;;;21.00;97.00;;;;;;5040895;28;20296;-72
2022/09/28 07:59:21;;;;;;;;;;;21.70;95.90;;;;;;5044417;28;19924;-71
2022/09/28 08:01:48;;;;;;;;;;;22.30;94.60;;;;;;5053970;28;19974;-71
2022/09/28 08:04:14;;;;;;;;;;;22.90;94.50;;;;;;5052556;28;19920;-72
2022/09/28 08:06:39;;;;;;;;;;;23.50;92.70;;;;;;5053867;28;19927;-72
2022/09/28 08:09:05;;;;;;;;;;;24.00;92.30;;;;;;5044849;28;19917;-72
2022/09/28 08:11:30;;;;;;;;;;;24.10;90.90;;;;;;5053296;28;19931;-71
2022/09/28 08:13:59;;;;;;;;;;;24.60;91.70;;;;;;5041701;28;20011;-72
2022/09/28 08:16:26;;;;;;;;;;;25.00;89.00;;;;;;5044242;28;20043;-72
2022/09/28 08:18:52;;;;;;;;;;;25.40;88.10;;;;;;5042741;28;20303;-72
2022/09/28 08:24:05;;;;;;;;;;;25.30;85.30;;;;;;5049954;28;19921;-72
2022/09/28 08:26:30;;;;;;;;;;;25.80;86.00;;;;;;5053452;28;19931;-72
2022/09/28 08:28:56;;;;;;;;;;;25.90;86.90;;;;;;5049915;28;19928;-72
2022/09/28 08:31:21;;;;;;;;;;;26.30;85.40;;;;;;5049852;28;20362;-72
2022/09/28 08:33:51;;;;;;;;;;;26.30;82.20;;;;;;5052708;28;19991;-73
2022/09/28 08:36:17;;;;;;;;;;;26.50;82.50;;;;;;5053419;28;19974;-72
2022/09/28 08:38:42;;;;;;;;;;;26.80;84.00;;;;;;5052214;28;19921;-73
2022/09/28 08:41:17;;;;;;;;;;;26.70;80.70;;;;;;5053957;28;20351;-73
2022/09/28 08:43:52;;;;;;;;;;;26.80;82.10;;;;;;5043929;28;19929;-72
2022/09/28 08:46:19;;;;;;;;;;;27.30;80.00;;;;;;5040073;28;19921;-72
2022/09/28 08:48:53;;;;;;;;;;;27.70;79.00;;;;;;5053805;28;19927;-72
2022/09/28 08:51:21;;;;;;;;;;;27.50;76.90;;;;;;5040212;28;20368;-73
2022/09/28 08:53:55;;;;;;;;;;;27.90;80.00;;;;;;5037764;28;19925;-73
2022/09/28 08:56:41;;;;;;;;;;;28.20;78.50;;;;;;5039566;28;19925;-72
2022/09/28 08:59:10;;;;;;;;;;;28.40;80.60;;;;;;5003908;28;20352;-73
2022/09/28 09:01:39;;;;;;;;;;;28.60;77.20;;;;;;5042231;28;20276;-72
2022/09/28 09:04:05;;;;;;;;;;;28.40;75.20;;;;;;5049641;28;19983;-73
2022/09/28 09:06:52;;;;;;;;;;;28.80;76.30;;;;;;5042639;28;19991;-72
2022/09/28 09:09:17;;;;;;;;;;;30.00;77.30;;;;;;5039825;28;19973;-72
2022/09/28 09:11:46;;;;;;;;;;;29.50;71.40;;;;;;5050206;28;19920;-72
2022/09/28 09:14:23;;;;;;;;;;;29.20;76.50;;;;;;5038777;28;20030;-72
2022/09/28 09:17:04;;;;;;;;;;;29.40;72.40;;;;;;5039980;28;19928;-73
2022/09/28 09:19:48;;;;;;;;;;;28.90;72.00;;;;;;5042638;28;20419;-73
2022/09/28 09:22:14;;;;;;;;;;;29.20;74.60;;;;;;5041934;28;19921;-72
2022/09/28 09:24:43;;;;;;;;;;;29.00;71.00;;;;;;5042510;28;19928;-72
2022/09/28 09:27:26;;;;;;;;;;;29.50;74.10;;;;;;5043750;28;19976;-72
2022/09/28 09:29:52;;;;;;;;;;;30.10;71.10;;;;;;5039333;28;19929;-72
2022/09/28 09:32:40;;;;;;;;;;;30.30;72.80;;;;;;5050188;28;19926;-72
2022/09/28 09:35:21;;;;;;;;;;;30.20;71.80;;;;;;5026934;28;20342;-72
2022/09/28 09:37:50;;;;;;;;;;;28.80;72.50;;;;;;5039598;28;19920;-72
2022/09/28 09:40:24;;;;;;;;;;;27.80;76.50;;;;;;5050299;28;19920;-72
2022/09/28 09:43:01;;;;;;;;;;;28.40;72.10;;;;;;5039065;28;19924;-72
2022/09/28 09:45:35;;;;;;;;;;;28.30;71.90;;;;;;5042143;28;19925;-72
2022/09/28 09:48:02;;;;;;;;;;;26.90;74.70;;;;;;5052612;28;19925;-72
2022/09/28 09:50:34;;;;;;;;;;;25.20;75.90;;;;;;5041070;28;19971;-72
2022/09/28 09:53:00;;;;;;;;;;;23.90;79.90;;;;;;5042133;28;19920;-71
2022/09/28 09:55:28;;;;;;;;;;;22.90;83.10;;;;;;5041473;28;19989;-71
2022/09/28 09:58:08;;;;;;;;;;;23.60;82.90;;;;;;5052320;28;20019;-71
2022/09/28 10:00:33;;;;;;;;;;;25.00;80.40;;;;;;5041925;28;19927;-71
2022/09/28 10:03:01;;;;;;;;;;;25.00;77.90;;;;;;5050816;28;20008;-71
2022/09/28 10:05:28;;;;;;;;;;;24.60;81.30;;;;;;5047685;28;19927;-71
2022/09/28 10:07:57;;;;;;;;;;;24.60;79.50;;;;;;5042730;28;20425;-71
2022/09/28 10:10:24;;;;;;;;;;;25.20;81.70;;;;;;5041465;28;19928;-71
2022/09/28 10:12:50;;;;;;;;;;;26.20;80.00;;;;;;5042234;28;19921;-71
2022/09/28 10:15:36;;;;;;;;;;;27.40;74.40;;;;;;5047546;28;20265;-71
2022/09/28 10:18:04;;;;;;;;;;;28.10;73.50;;;;;;5033643;28;19924;-71
2022/09/28 10:20:32;;;;;;;;;;;28.60;73.60;;;;;;5041350;28;19921;-71
2022/09/28 10:23:00;;;;;;;;;;;29.60;72.50;;;;;;5042495;28;19927;-71
2022/09/28 10:25:27;;;;;;;;;;;29.40;73.10;;;;;;5040048;28;20262;-71
2022/09/28 10:27:53;;;;;;;;;;;29.90;72.10;;;;;;5041728;28;19920;-71
2022/09/28 10:30:22;;;;;;;;;;;30.20;68.90;;;;;;5051332;28;19920;-72
2022/09/28 10:32:49;;;;;;;;;;;30.10;69.70;;;;;;5041429;28;19921;-71
2022/09/28 10:35:18;;;;;;;;;;;29.00;69.10;;;;;;5039437;28;19944;-71
2022/09/28 10:37:58;;;;;;;;;;;29.10;69.30;;;;;;5041739;28;20385;-71
2022/09/28 10:40:24;;;;;;;;;;;28.80;70.40;;;;;;5050875;28;19928;-71
2022/09/28 10:42:50;;;;;;;;;;;27.20;70.80;;;;;;5042212;28;20357;-70
2022/09/28 10:45:19;;;;;;;;;;;26.20;72.50;;;;;;5037201;28;19927;-71
2022/09/28 10:47:45;;;;;;;;;;;24.80;72.50;;;;;;5051356;28;19920;-70
2022/09/28 10:50:19;;;;;;;;;;;23.90;76.40;;;;;;5039768;28;19974;-70
2022/09/28 10:52:45;;;;;;;;;;;24.50;78.50;;;;;;5051290;28;19924;-70
2022/09/28 10:55:23;;;;;;;;;;;24.20;78.30;;;;;;5041958;28;20371;-70
2022/09/28 10:57:49;;;;;;;;;;;23.90;78.70;;;;;;5042269;28;19921;-70
2022/09/28 11:00:36;;;;;;;;;;;24.80;76.20;;;;;;5036673;28;19924;-70
2022/09/28 11:03:02;;;;;;;;;;;25.80;76.40;;;;;;5033968;28;19924;-70
2022/09/28 11:05:28;;;;;;;;;;;26.70;76.50;;;;;;5050341;28;19921;-70
2022/09/28 11:07:58;;;;;;;;;;;26.70;76.50;;;;;;5037628;28;19924;-71
2022/09/28 11:10:26;;;;;;;;;;;27.30;73.60;;;;;;5051077;28;19921;-70
2022/09/28 11:12:52;;;;;;;;;;;27.20;74.60;;;;;;5035056;28;19924;-70
2022/09/28 11:15:23;;;;;;;;;;;25.80;75.50;;;;;;5041311;28;19929;-70
2022/09/28 11:17:49;;;;;;;;;;;24.50;76.20;;;;;;5034088;28;19921;-70
2022/09/28 11:20:29;;;;;;;;;;;23.30;78.90;;;;;;5032978;28;19921;-70
2022/09/28 11:22:56;;;;;;;;;;;22.40;82.30;;;;;;5031113;28;19925;-70
2022/09/28 11:25:23;;;;;;;;;;;21.90;84.50;;;;;;5030684;28;19929;-70
2022/09/28 11:27:51;;;;;;;;;;;23.20;82.20;;;;;;5034326;28;19928;-70
2022/09/28 11:30:26;;;;;;;;;;;24.80;82.80;;;;;;5033774;28;19929;-70
2022/09/28 11:32:59;;;;;;;;;;;25.80;79.80;;;;;;5028191;28;20422;-70
2022/09/28 11:35:45;;;;;;;;;;;26.90;74.20;;;;;;5029265;28;19968;-71
2022/09/28 11:38:24;;;;;;;;;;;27.40;71.60;;;;;;5015597;28;19928;-70
2022/09/28 11:41:08;;;;;;;;;;;27.50;73.80;;;;;;5030767;28;19921;-70
2022/09/28 11:43:40;;;;;;;;;;;27.40;72.10;;;;;;5028276;28;19922;-70
2022/09/28 11:46:12;;;;;;;;;;;26.40;75.90;;;;;;5034507;28;19960;-70
2022/09/28 11:48:44;;;;;;;;;;;24.90;77.50;;;;;;5033692;28;20306;-70
2022/09/28 11:51:15;;;;;;;;;;;23.80;77.90;;;;;;5033183;28;19928;-70
2022/09/28 11:53:46;;;;;;;;;;;24.10;80.60;;;;;;5030886;28;20522;-70
2022/09/28 11:56:18;;;;;;;;;;;25.00;77.90;;;;;;5031546;28;19921;-70
2022/09/28 11:58:45;;;;;;;;;;;25.10;76.30;;;;;;5033287;28;19920;-70
2022/09/28 12:01:19;;;;;;;;;;;24.90;76.60;;;;;;5030466;28;20436;-70
2022/09/28 12:03:49;;;;;;;;;;;25.40;75.60;;;;;;5029897;28;19924;-70
2022/09/28 12:06:23;;;;;;;;;;;26.10;76.40;;;;;;5029144;28;20343;-70
2022/09/28 12:08:52;;;;;;;;;;;25.70;74.30;;;;;;5032047;28;19928;-70
2022/09/28 12:11:25;;;;;;;;;;;24.20;78.70;;;;;;5032132;28;20377;-70
2022/09/28 12:13:52;;;;;;;;;;;24.20;80.40;;;;;;5031338;28;19917;-70
2022/09/28 12:16:24;;;;;;;;;;;24.90;78.80;;;;;;5033603;28;19944;-71
2022/09/28 12:18:56;;;;;;;;;;;25.60;78.30;;;;;;5061569;28;19921;-71
2022/09/28 12:21:46;;;;;;;;;;;26.20;80.60;;;;;;5059820;28;20288;-71
2022/09/28 12:24:16;;;;;;;;;;;26.50;78.70;;;;;;5056664;28;19924;-71
2022/09/28 12:26:47;;;;;;;;;;;27.40;76.90;;;;;;5040858;28;20288;-71
2022/09/28 12:29:17;;;;;;;;;;;28.00;77.80;;;;;;5039646;28;19960;-71
2022/09/28 12:31:57;;;;;;;;;;;27.90;75.90;;;;;;5039648;28;20422;-71
2022/09/28 12:34:23;;;;;;;;;;;28.70;74.10;;;;;;5061026;28;19975;-71
2022/09/28 12:36:57;;;;;;;;;;;28.60;74.10;;;;;;5062380;28;19963;-71
2022/09/28 12:39:34;;;;;;;;;;;28.30;74.20;;;;;;5044194;28;19916;-71
2022/09/28 12:42:13;;;;;;;;;;;28.20;74.00;;;;;;5064150;28;20002;-71
2022/09/28 12:44:42;;;;;;;;;;;28.10;74.10;;;;;;5038850;28;19920;-71
2022/09/28 12:47:26;;;;;;;;;;;28.00;73.00;;;;;;5047066;28;20368;-71
2022/09/28 12:50:00;;;;;;;;;;;27.90;75.90;;;;;;5041830;28;19928;-71
2022/09/28 12:52:41;;;;;;;;;;;27.90;74.80;;;;;;5043458;28;20019;-71
2022/09/28 12:55:25;;;;;;;;;;;26.80;71.70;;;;;;5039205;28;19921;-71
2022/09/28 12:57:58;;;;;;;;;;;26.10;75.70;;;;;;5042753;28;19920;-69
2022/09/28 13:00:44;;;;;;;;;;;25.20;74.30;;;;;;5057270;28;19920;-69
2022/09/28 13:03:13;;;;;;;;;;;24.60;76.80;;;;;;4999746;28;19928;-69
2022/09/28 13:05:44;;;;;;;;;;;24.30;78.60;;;;;;5045963;28;19924;-69
2022/09/28 13:08:16;;;;;;;;;;;23.70;76.00;;;;;;5040621;28;19920;-69
2022/09/28 13:10:51;;;;;;;;;;;23.10;78.60;;;;;;5064196;28;19975;-69
2022/09/28 13:13:26;;;;;;;;;;;22.50;79.40;;;;;;5061671;28;19959;-69
2022/09/28 13:16:01;;;;;;;;;;;22.40;80.20;;;;;;5043899;28;19939;-70
2022/09/28 13:18:32;;;;;;;;;;;22.20;83.90;;;;;;5040299;28;19928;-69
2022/09/28 13:21:13;;;;;;;;;;;22.00;79.60;;;;;;5045221;28;19991;-69
2022/09/28 13:23:43;;;;;;;;;;;21.80;81.30;;;;;;5057562;28;19932;-69
2022/09/28 13:26:13;;;;;;;;;;;22.00;82.00;;;;;;5063933;28;20372;-69
2022/09/28 13:28:41;;;;;;;;;;;21.80;83.50;;;;;;5042235;28;20365;-71
2022/09/28 13:31:08;;;;;;;;;;;21.80;81.10;;;;;;5042805;28;19916;-71
2022/09/28 13:33:35;;;;;;;;;;;21.80;82.50;;;;;;5045934;28;19991;-72
2022/09/28 13:36:03;;;;;;;;;;;21.60;81.00;;;;;;5039089;28;19916;-71
2022/09/28 13:38:30;;;;;;;;;;;21.60;78.40;;;;;;5045767;28;19955;-75
2022/09/28 13:41:04;;;;;;;;;;;21.50;82.70;;;;;;5038325;28;20018;-70
2022/09/28 13:43:32;;;;;;;;;;;21.30;82.20;;;;;;5056347;28;19943;-69
2022/09/28 13:46:05;;;;;;;;;;;21.20;82.90;;;;;;5038422;28;19920;-70
2022/09/28 13:49:00;;;;;;;;;;;21.00;80.40;;;;;;5032183;28;19917;-71
2022/09/28 13:51:38;;;;;;;;;;;20.70;81.30;;;;;;4970215;28;20014;-68
2022/09/28 13:54:26;;;;;;;;;;;20.30;81.90;;;;;;5036681;28;20402;-70
2022/09/28 13:56:54;;;;;;;;;;;20.20;85.00;;;;;;5062398;28;19934;-69
2022/09/28 13:59:27;;;;;;;;;;;20.30;83.40;;;;;;5043021;28;20373;-71
2022/09/28 14:02:00;;;;;;;;;;;20.10;82.50;;;;;;5043639;28;20129;-70
2022/09/28 14:04:46;;;;;;;;;;;20.10;84.40;;;;;;5058304;28;19921;-69
2022/09/28 14:07:19;;;;;;;;;;;20.00;84.70;;;;;;5059591;28;19931;-73
2022/09/28 14:09:45;;;;;;;;;;;20.00;85.60;;;;;;5042327;28;19927;-71
2022/09/28 14:12:26;;;;;;;;;;;19.90;85.30;;;;;;5062155;28;20015;-72
2022/09/28 14:14:52;;;;;;;;;;;20.00;85.70;;;;;;5042274;28;19924;-72
2022/09/28 14:17:17;;;;;;;;;;;19.80;87.00;;;;;;5055901;28;20300;-75
2022/09/28 14:19:44;;;;;;;;;;;19.90;86.70;;;;;;5060770;28;20253;-73
2022/09/28 14:22:19;;;;;;;;;;;20.00;84.90;;;;;;5061716;28;20252;-72
2022/09/28 14:24:48;;;;;;;;;;;19.80;84.80;;;;;;5061718;28;19928;-71
2022/09/28 14:27:16;;;;;;;;;;;19.70;85.80;;;;;;5061236;28;19926;-71
2022/09/28 14:30:00;;;;;;;;;;;19.50;85.20;;;;;;5061506;28;20392;-73
2022/09/28 14:32:35;;;;;;;;;;;19.30;86.30;;;;;;5037061;28;20375;-74
2022/09/28 14:35:03;;;;;;;;;;;19.20;85.50;;;;;;5041531;28;19925;-74
2022/09/28 14:43:25;;;;;;;;;;;18.60;89.60;;;;;;5037365;28;19924;-73
2022/09/28 14:46:11;;;;;;;;;;;18.60;88.50;;;;;;5037497;28;19921;-73